sensor_id;sensor_type;location;lat;lon;timestamp;P1;durP1;ratioP1;P2;durP2;ratioP2
42096;SDS011;27754;45.414;11.084;2023-10-13T00:01:57;42.53;;;27.17;;
42096;SDS011;27754;45.414;11.084;2023-10-13T00:04:26;46.28;;;29.08;;
42096;SDS011;27754;45.414;11.084;2023-10-13T00:06:54;45.42;;;27.98;;
42096;SDS011;27754;45.414;11.084;2023-10-13T00:09:25;44.15;;;26.80;;
42096;SDS011;27754;45.414;11.084;2023-10-13T00:11:59;45.25;;;28.60;;
42096;SDS011;27754;45.414;11.084;2023-10-13T00:14:27;49.88;;;28.90;;
42096;SDS011;27754;45.414;11.084;2023-10-13T00:17:01;55.03;;;29.55;;
42096;SDS011;27754;45.414;11.084;2023-10-13T00:19:33;46.05;;;29.45;;
42096;SDS011;27754;45.414;11.084;2023-10-13T00:22:06;40.67;;;27.38;;
42096;SDS011;27754;45.414;11.084;2023-10-13T00:24:37;39.75;;;26.27;;
42096;SDS011;27754;45.414;11.084;2023-10-13T00:27:18;46.55;;;28.10;;
42096;SDS011;27754;45.414;11.084;2023-10-13T00:30:06;45.03;;;28.13;;
42096;SDS011;27754;45.414;11.084;2023-10-13T00:32:51;42.40;;;28.42;;
42096;SDS011;27754;45.414;11.084;2023-10-13T00:35:23;46.78;;;30.98;;
42096;SDS011;27754;45.414;11.084;2023-10-13T00:38:03;49.63;;;30.95;;
42096;SDS011;27754;45.414;11.084;2023-10-13T00:40:39;51.05;;;34.08;;
42096;SDS011;27754;45.414;11.084;2023-10-13T00:43:06;56.75;;;35.85;;
42096;SDS011;27754;45.414;11.084;2023-10-13T00:45:52;58.92;;;34.55;;
42096;SDS011;27754;45.414;11.084;2023-10-13T00:48:22;52.45;;;32.42;;
42096;SDS011;27754;45.414;11.084;2023-10-13T00:51:01;46.72;;;32.53;;
42096;SDS011;27754;45.414;11.084;2023-10-13T00:53:33;53.95;;;34.17;;
42096;SDS011;27754;45.414;11.084;2023-10-13T00:56:03;46.53;;;32.83;;
42096;SDS011;27754;45.414;11.084;2023-10-13T00:58:34;47.17;;;32.13;;
42096;SDS011;27754;45.414;11.084;2023-10-13T01:01:02;46.28;;;31.45;;
42096;SDS011;27754;45.414;11.084;2023-10-13T01:03:52;50.53;;;31.73;;
42096;SDS011;27754;45.414;11.084;2023-10-13T01:06:28;48.50;;;31.83;;
42096;SDS011;27754;45.414;11.084;2023-10-13T01:08:57;52.40;;;32.50;;
42096;SDS011;27754;45.414;11.084;2023-10-13T01:11:45;52.92;;;33.55;;
42096;SDS011;27754;45.414;11.084;2023-10-13T01:14:14;53.92;;;33.22;;
42096;SDS011;27754;45.414;11.084;2023-10-13T01:16:44;48.33;;;33.47;;
42096;SDS011;27754;45.414;11.084;2023-10-13T01:19:13;50.88;;;34.40;;
42096;SDS011;27754;45.414;11.084;2023-10-13T01:21:44;48.33;;;33.08;;
42096;SDS011;27754;45.414;11.084;2023-10-13T01:24:11;49.90;;;33.38;;
42096;SDS011;27754;45.414;11.084;2023-10-13T01:26:39;51.17;;;33.38;;
42096;SDS011;27754;45.414;11.084;2023-10-13T01:29:09;48.45;;;32.80;;
42096;SDS011;27754;45.414;11.084;2023-10-13T01:31:42;47.40;;;31.80;;
42096;SDS011;27754;45.414;11.084;2023-10-13T01:34:14;46.78;;;31.75;;
42096;SDS011;27754;45.414;11.084;2023-10-13T01:36:51;52.17;;;31.40;;
42096;SDS011;27754;45.414;11.084;2023-10-13T01:39:20;48.85;;;32.53;;
42096;SDS011;27754;45.414;11.084;2023-10-13T01:41:48;52.28;;;32.42;;
42096;SDS011;27754;45.414;11.084;2023-10-13T01:44:23;48.65;;;31.95;;
42096;SDS011;27754;45.414;11.084;2023-10-13T01:46:52;57.38;;;35.00;;
42096;SDS011;27754;45.414;11.084;2023-10-13T01:49:19;54.15;;;32.88;;
42096;SDS011;27754;45.414;11.084;2023-10-13T01:51:49;53.40;;;32.70;;
42096;SDS011;27754;45.414;11.084;2023-10-13T01:54:16;52.80;;;32.78;;
42096;SDS011;27754;45.414;11.084;2023-10-13T01:56:44;49.60;;;33.42;;
42096;SDS011;27754;45.414;11.084;2023-10-13T01:59:11;46.67;;;32.47;;
42096;SDS011;27754;45.414;11.084;2023-10-13T02:01:39;51.58;;;32.42;;
42096;SDS011;27754;45.414;11.084;2023-10-13T02:04:08;51.03;;;32.35;;
42096;SDS011;27754;45.414;11.084;2023-10-13T02:06:37;49.72;;;32.47;;
42096;SDS011;27754;45.414;11.084;2023-10-13T02:09:07;55.97;;;34.10;;
42096;SDS011;27754;45.414;11.084;2023-10-13T02:11:52;49.88;;;31.63;;
42096;SDS011;27754;45.414;11.084;2023-10-13T02:14:23;47.88;;;30.67;;
42096;SDS011;27754;45.414;11.084;2023-10-13T02:16:52;54.20;;;34.08;;
42096;SDS011;27754;45.414;11.084;2023-10-13T02:22:13;50.25;;;33.45;;
42096;SDS011;27754;45.414;11.084;2023-10-13T02:24:59;48.08;;;32.50;;
42096;SDS011;27754;45.414;11.084;2023-10-13T02:27:33;45.95;;;30.55;;
42096;SDS011;27754;45.414;11.084;2023-10-13T02:30:07;50.60;;;32.30;;
42096;SDS011;27754;45.414;11.084;2023-10-13T02:32:41;50.60;;;33.88;;
42096;SDS011;27754;45.414;11.084;2023-10-13T02:35:10;52.42;;;34.00;;
42096;SDS011;27754;45.414;11.084;2023-10-13T02:37:42;54.00;;;35.28;;
42096;SDS011;27754;45.414;11.084;2023-10-13T02:40:11;50.33;;;32.60;;
42096;SDS011;27754;45.414;11.084;2023-10-13T02:42:38;50.40;;;34.03;;
42096;SDS011;27754;45.414;11.084;2023-10-13T02:45:05;49.13;;;32.70;;
42096;SDS011;27754;45.414;11.084;2023-10-13T02:47:38;53.97;;;34.72;;
42096;SDS011;27754;45.414;11.084;2023-10-13T02:50:05;53.47;;;34.25;;
42096;SDS011;27754;45.414;11.084;2023-10-13T02:52:38;52.38;;;35.28;;
42096;SDS011;27754;45.414;11.084;2023-10-13T02:55:08;53.95;;;33.25;;
42096;SDS011;27754;45.414;11.084;2023-10-13T02:57:41;47.15;;;31.65;;
42096;SDS011;27754;45.414;11.084;2023-10-13T03:00:08;51.50;;;34.60;;
42096;SDS011;27754;45.414;11.084;2023-10-13T03:02:39;51.70;;;33.90;;
42096;SDS011;27754;45.414;11.084;2023-10-13T03:05:11;49.30;;;32.53;;
42096;SDS011;27754;45.414;11.084;2023-10-13T03:07:40;52.50;;;34.00;;
42096;SDS011;27754;45.414;11.084;2023-10-13T03:10:10;47.40;;;31.00;;
42096;SDS011;27754;45.414;11.084;2023-10-13T03:12:37;54.80;;;34.05;;
42096;SDS011;27754;45.414;11.084;2023-10-13T03:15:06;51.53;;;34.13;;
42096;SDS011;27754;45.414;11.084;2023-10-13T03:17:43;56.30;;;32.47;;
42096;SDS011;27754;45.414;11.084;2023-10-13T03:20:11;50.17;;;33.58;;
42096;SDS011;27754;45.414;11.084;2023-10-13T03:22:52;51.15;;;32.55;;
42096;SDS011;27754;45.414;11.084;2023-10-13T03:25:19;47.05;;;31.67;;
42096;SDS011;27754;45.414;11.084;2023-10-13T03:28:09;52.30;;;32.38;;
42096;SDS011;27754;45.414;11.084;2023-10-13T03:30:42;52.42;;;33.60;;
42096;SDS011;27754;45.414;11.084;2023-10-13T03:33:10;50.58;;;34.42;;
42096;SDS011;27754;45.414;11.084;2023-10-13T03:35:51;51.85;;;32.85;;
42096;SDS011;27754;45.414;11.084;2023-10-13T03:38:20;48.08;;;30.85;;
42096;SDS011;27754;45.414;11.084;2023-10-13T03:40:53;44.58;;;29.70;;
42096;SDS011;27754;45.414;11.084;2023-10-13T03:43:33;52.63;;;31.02;;
42096;SDS011;27754;45.414;11.084;2023-10-13T03:46:12;49.05;;;29.88;;
42096;SDS011;27754;45.414;11.084;2023-10-13T03:48:39;48.40;;;29.77;;
42096;SDS011;27754;45.414;11.084;2023-10-13T03:51:20;47.15;;;30.92;;
42096;SDS011;27754;45.414;11.084;2023-10-13T03:53:47;50.17;;;31.15;;
42096;SDS011;27754;45.414;11.084;2023-10-13T03:56:24;45.38;;;30.45;;
42096;SDS011;27754;45.414;11.084;2023-10-13T03:58:58;47.60;;;30.77;;
42096;SDS011;27754;45.414;11.084;2023-10-13T04:01:31;48.78;;;31.40;;
42096;SDS011;27754;45.414;11.084;2023-10-13T04:04:07;48.05;;;29.48;;
42096;SDS011;27754;45.414;11.084;2023-10-13T04:06:38;49.00;;;31.30;;
42096;SDS011;27754;45.414;11.084;2023-10-13T04:09:15;47.65;;;31.83;;
42096;SDS011;27754;45.414;11.084;2023-10-13T04:11:58;49.72;;;32.10;;
42096;SDS011;27754;45.414;11.084;2023-10-13T04:14:46;48.00;;;32.05;;
42096;SDS011;27754;45.414;11.084;2023-10-13T04:17:22;49.47;;;32.47;;
42096;SDS011;27754;45.414;11.084;2023-10-13T04:19:50;50.80;;;34.97;;
42096;SDS011;27754;45.414;11.084;2023-10-13T04:22:34;54.92;;;34.42;;
42096;SDS011;27754;45.414;11.084;2023-10-13T04:25:25;55.80;;;33.90;;
42096;SDS011;27754;45.414;11.084;2023-10-13T04:28:07;49.45;;;33.17;;
42096;SDS011;27754;45.414;11.084;2023-10-13T04:30:47;48.90;;;32.55;;
42096;SDS011;27754;45.414;11.084;2023-10-13T04:33:25;50.13;;;33.78;;
42096;SDS011;27754;45.414;11.084;2023-10-13T04:38:49;50.92;;;33.40;;
42096;SDS011;27754;45.414;11.084;2023-10-13T04:41:26;53.47;;;34.43;;
42096;SDS011;27754;45.414;11.084;2023-10-13T04:44:15;45.88;;;33.22;;
42096;SDS011;27754;45.414;11.084;2023-10-13T04:46:49;52.05;;;33.70;;
42096;SDS011;27754;45.414;11.084;2023-10-13T04:49:18;46.00;;;29.70;;
42096;SDS011;27754;45.414;11.084;2023-10-13T04:52:02;47.05;;;31.30;;
42096;SDS011;27754;45.414;11.084;2023-10-13T04:54:37;45.45;;;29.58;;
42096;SDS011;27754;45.414;11.084;2023-10-13T04:57:21;41.55;;;29.70;;
42096;SDS011;27754;45.414;11.084;2023-10-13T05:00:08;43.92;;;29.80;;
42096;SDS011;27754;45.414;11.084;2023-10-13T05:02:36;42.75;;;29.92;;
42096;SDS011;27754;45.414;11.084;2023-10-13T05:05:05;45.47;;;31.17;;
42096;SDS011;27754;45.414;11.084;2023-10-13T05:07:40;50.88;;;31.13;;
42096;SDS011;27754;45.414;11.084;2023-10-13T05:10:26;45.30;;;30.77;;
42096;SDS011;27754;45.414;11.084;2023-10-13T05:13:32;48.22;;;30.83;;
42096;SDS011;27754;45.414;11.084;2023-10-13T05:16:18;43.85;;;29.83;;
42096;SDS011;27754;45.414;11.084;2023-10-13T05:19:04;44.95;;;29.58;;
42096;SDS011;27754;45.414;11.084;2023-10-13T05:21:49;47.75;;;30.35;;
42096;SDS011;27754;45.414;11.084;2023-10-13T05:24:35;44.78;;;29.00;;
42096;SDS011;27754;45.414;11.084;2023-10-13T05:27:20;47.72;;;31.02;;
42096;SDS011;27754;45.414;11.084;2023-10-13T05:30:06;47.35;;;31.27;;
42096;SDS011;27754;45.414;11.084;2023-10-13T05:32:52;67.82;;;30.75;;
42096;SDS011;27754;45.414;11.084;2023-10-13T05:35:37;57.88;;;30.88;;
42096;SDS011;27754;45.414;11.084;2023-10-13T05:38:23;49.05;;;30.10;;
42096;SDS011;27754;45.414;11.084;2023-10-13T05:41:08;48.67;;;31.67;;
42096;SDS011;27754;45.414;11.084;2023-10-13T05:43:54;49.30;;;31.48;;
42096;SDS011;27754;45.414;11.084;2023-10-13T05:46:39;60.33;;;34.88;;
42096;SDS011;27754;45.414;11.084;2023-10-13T05:49:16;54.58;;;33.03;;
42096;SDS011;27754;45.414;11.084;2023-10-13T05:51:43;54.55;;;31.42;;
42096;SDS011;27754;45.414;11.084;2023-10-13T05:54:45;54.45;;;32.60;;
42096;SDS011;27754;45.414;11.084;2023-10-13T05:57:31;61.05;;;34.95;;
42096;SDS011;27754;45.414;11.084;2023-10-13T06:00:17;59.13;;;33.28;;
42096;SDS011;27754;45.414;11.084;2023-10-13T06:06:02;57.15;;;33.15;;
42096;SDS011;27754;45.414;11.084;2023-10-13T06:09:06;55.38;;;32.25;;
42096;SDS011;27754;45.414;11.084;2023-10-13T06:11:52;55.45;;;33.10;;
42096;SDS011;27754;45.414;11.084;2023-10-13T06:14:37;55.25;;;33.15;;
42096;SDS011;27754;45.414;11.084;2023-10-13T06:17:23;51.53;;;33.20;;
42096;SDS011;27754;45.414;11.084;2023-10-13T06:22:55;59.70;;;34.70;;
42096;SDS011;27754;45.414;11.084;2023-10-13T06:25:41;53.28;;;35.30;;
42096;SDS011;27754;45.414;11.084;2023-10-13T06:28:26;53.83;;;34.15;;
42096;SDS011;27754;45.414;11.084;2023-10-13T06:31:09;60.55;;;33.33;;
42096;SDS011;27754;45.414;11.084;2023-10-13T06:33:48;56.83;;;34.75;;
42096;SDS011;27754;45.414;11.084;2023-10-13T06:36:15;57.90;;;35.08;;
42096;SDS011;27754;45.414;11.084;2023-10-13T06:38:44;56.25;;;35.92;;
42096;SDS011;27754;45.414;11.084;2023-10-13T06:41:11;65.63;;;36.47;;
42096;SDS011;27754;45.414;11.084;2023-10-13T06:43:46;64.93;;;35.85;;
42096;SDS011;27754;45.414;11.084;2023-10-13T06:46:26;64.03;;;36.35;;
42096;SDS011;27754;45.414;11.084;2023-10-13T06:48:55;59.47;;;34.67;;
42096;SDS011;27754;45.414;11.084;2023-10-13T06:51:26;73.25;;;37.30;;
42096;SDS011;27754;45.414;11.084;2023-10-13T06:54:05;52.88;;;34.92;;
42096;SDS011;27754;45.414;11.084;2023-10-13T06:56:37;60.85;;;33.80;;
42096;SDS011;27754;45.414;11.084;2023-10-13T06:59:06;71.43;;;36.95;;
42096;SDS011;27754;45.414;11.084;2023-10-13T07:01:34;64.88;;;36.60;;
42096;SDS011;27754;45.414;11.084;2023-10-13T07:04:09;63.10;;;37.85;;
42096;SDS011;27754;45.414;11.084;2023-10-13T07:06:43;62.92;;;36.45;;
42096;SDS011;27754;45.414;11.084;2023-10-13T07:09:17;67.50;;;35.42;;
42096;SDS011;27754;45.414;11.084;2023-10-13T07:12:03;61.60;;;35.97;;
42096;SDS011;27754;45.414;11.084;2023-10-13T07:14:46;58.63;;;34.42;;
42096;SDS011;27754;45.414;11.084;2023-10-13T07:17:34;64.70;;;35.13;;
42096;SDS011;27754;45.414;11.084;2023-10-13T07:20:06;61.63;;;36.22;;
42096;SDS011;27754;45.414;11.084;2023-10-13T07:22:52;60.67;;;35.28;;
42096;SDS011;27754;45.414;11.084;2023-10-13T07:25:32;61.88;;;35.05;;
42096;SDS011;27754;45.414;11.084;2023-10-13T07:28:03;60.38;;;35.55;;
42096;SDS011;27754;45.414;11.084;2023-10-13T07:30:32;53.70;;;35.50;;
42096;SDS011;27754;45.414;11.084;2023-10-13T07:33:06;64.28;;;35.83;;
42096;SDS011;27754;45.414;11.084;2023-10-13T07:35:33;60.35;;;37.65;;
42096;SDS011;27754;45.414;11.084;2023-10-13T07:38:02;57.50;;;35.75;;
42096;SDS011;27754;45.414;11.084;2023-10-13T07:40:34;57.03;;;36.10;;
42096;SDS011;27754;45.414;11.084;2023-10-13T07:43:01;60.60;;;35.88;;
42096;SDS011;27754;45.414;11.084;2023-10-13T07:45:30;69.40;;;35.60;;
42096;SDS011;27754;45.414;11.084;2023-10-13T07:48:03;61.15;;;35.47;;
